sensor_id;sensor_type;location;lat;lon;timestamp;pressure;altitude;pressure_sealevel;temperature;humidity
11395;BME280;5753;54.402;10.220;2022-10-16T00:02:08;100813.41;;;21.43;58.47
11395;BME280;5753;54.402;10.220;2022-10-16T00:04:34;100813.66;;;22.72;54.83
11395;BME280;5753;54.402;10.220;2022-10-16T00:07:00;100816.00;;;22.00;57.52
11395;BME280;5753;54.402;10.220;2022-10-16T00:09:26;100822.81;;;22.60;55.20
11395;BME280;5753;54.402;10.220;2022-10-16T00:11:52;100814.38;;;23.02;53.59
11395;BME280;5753;54.402;10.220;2022-10-16T00:14:18;100827.06;;;22.38;54.36
11395;BME280;5753;54.402;10.220;2022-10-16T00:16:45;100825.72;;;22.78;54.15
11395;BME280;5753;54.402;10.220;2022-10-16T00:19:11;100832.44;;;22.07;55.29
11395;BME280;5753;54.402;10.220;2022-10-16T00:21:38;100839.38;;;22.89;53.97
11395;BME280;5753;54.402;10.220;2022-10-16T00:24:07;100835.22;;;21.44;57.49
11395;BME280;5753;54.402;10.220;2022-10-16T00:26:35;100840.00;;;20.97;60.06
11395;BME280;5753;54.402;10.220;2022-10-16T00:29:02;100832.91;;;22.20;56.42
11395;BME280;5753;54.402;10.220;2022-10-16T00:31:29;100835.34;;;22.52;55.01
11395;BME280;5753;54.402;10.220;2022-10-16T00:33:55;100840.22;;;23.14;52.30
11395;BME280;5753;54.402;10.220;2022-10-16T00:36:23;100839.50;;;22.33;54.51
11395;BME280;5753;54.402;10.220;2022-10-16T00:38:54;100833.84;;;22.72;52.67
11395;BME280;5753;54.402;10.220;2022-10-16T00:41:23;100833.97;;;23.17;51.85
11395;BME280;5753;54.402;10.220;2022-10-16T00:43:58;100830.91;;;22.28;52.98
11395;BME280;5753;54.402;10.220;2022-10-16T00:46:40;100837.41;;;21.59;55.39
11395;BME280;5753;54.402;10.220;2022-10-16T00:49:09;100845.28;;;21.59;56.50
11395;BME280;5753;54.402;10.220;2022-10-16T00:51:42;100838.91;;;21.95;55.41
11395;BME280;5753;54.402;10.220;2022-10-16T00:54:28;100841.84;;;21.57;55.92
11395;BME280;5753;54.402;10.220;2022-10-16T00:56:58;100841.84;;;22.14;54.49
11395;BME280;5753;54.402;10.220;2022-10-16T00:59:29;100839.78;;;22.50;53.41
11395;BME280;5753;54.402;10.220;2022-10-16T01:01:56;100845.84;;;22.79;52.42
11395;BME280;5753;54.402;10.220;2022-10-16T01:04:24;100851.84;;;21.72;55.43
11395;BME280;5753;54.402;10.220;2022-10-16T01:07:09;100850.16;;;21.42;56.93
11395;BME280;5753;54.402;10.220;2022-10-16T01:10:14;100858.28;;;21.32;57.01
11395;BME280;5753;54.402;10.220;2022-10-16T01:12:58;100853.66;;;22.29;54.24
11395;BME280;5753;54.402;10.220;2022-10-16T01:21:12;100862.84;;;22.14;54.74
11395;BME280;5753;54.402;10.220;2022-10-16T01:29:39;100866.03;;;21.37;55.80
11395;BME280;5753;54.402;10.220;2022-10-16T01:37:59;100862.22;;;22.34;53.87
11395;BME280;5753;54.402;10.220;2022-10-16T01:40:28;100866.88;;;22.79;51.21
11395;BME280;5753;54.402;10.220;2022-10-16T01:43:05;100872.41;;;21.27;58.16
11395;BME280;5753;54.402;10.220;2022-10-16T01:45:33;100867.78;;;21.36;57.46
11395;BME280;5753;54.402;10.220;2022-10-16T01:48:02;100857.44;;;22.73;52.44
11395;BME280;5753;54.402;10.220;2022-10-16T01:50:33;100861.72;;;21.34;55.42
11395;BME280;5753;54.402;10.220;2022-10-16T01:53:02;100858.19;;;21.94;54.22
11395;BME280;5753;54.402;10.220;2022-10-16T01:55:35;100860.34;;;20.87;59.08
11395;BME280;5753;54.402;10.220;2022-10-16T01:58:04;100858.91;;;21.08;58.48
11395;BME280;5753;54.402;10.220;2022-10-16T02:00:32;100851.53;;;22.12;54.70
11395;BME280;5753;54.402;10.220;2022-10-16T02:03:02;100862.84;;;20.92;58.82
11395;BME280;5753;54.402;10.220;2022-10-16T02:05:37;100851.19;;;23.27;51.21
11395;BME280;5753;54.402;10.220;2022-10-16T02:08:06;100858.66;;;21.79;55.05
11395;BME280;5753;54.402;10.220;2022-10-16T02:10:33;100855.56;;;22.50;52.90
11395;BME280;5753;54.402;10.220;2022-10-16T02:15:33;100858.91;;;21.70;54.37
11395;BME280;5753;54.402;10.220;2022-10-16T02:17:59;100862.81;;;21.57;54.89
11395;BME280;5753;54.402;10.220;2022-10-16T02:20:28;100857.09;;;21.72;54.95
11395;BME280;5753;54.402;10.220;2022-10-16T02:22:58;100859.13;;;21.00;56.23
11395;BME280;5753;54.402;10.220;2022-10-16T02:25:32;100857.56;;;21.26;56.71
11395;BME280;5753;54.402;10.220;2022-10-16T02:28:05;100853.22;;;20.58;58.60
11395;BME280;5753;54.402;10.220;2022-10-16T02:30:39;100851.44;;;20.94;58.23
11395;BME280;5753;54.402;10.220;2022-10-16T02:33:10;100843.03;;;20.82;59.16
11395;BME280;5753;54.402;10.220;2022-10-16T02:35:39;100845.41;;;21.84;55.05
11395;BME280;5753;54.402;10.220;2022-10-16T02:38:07;100854.66;;;21.66;54.91
11395;BME280;5753;54.402;10.220;2022-10-16T02:40:34;100849.50;;;21.01;57.29
11395;BME280;5753;54.402;10.220;2022-10-16T02:43:02;100858.53;;;20.18;60.65
11395;BME280;5753;54.402;10.220;2022-10-16T02:45:29;100858.47;;;22.15;54.55
11395;BME280;5753;54.402;10.220;2022-10-16T02:47:55;100861.72;;;21.34;57.33
11395;BME280;5753;54.402;10.220;2022-10-16T02:50:21;100859.91;;;21.95;53.99
11395;BME280;5753;54.402;10.220;2022-10-16T02:52:48;100866.44;;;21.53;55.58
11395;BME280;5753;54.402;10.220;2022-10-16T02:55:14;100854.13;;;21.84;54.10
11395;BME280;5753;54.402;10.220;2022-10-16T02:57:40;100858.75;;;21.76;54.34
11395;BME280;5753;54.402;10.220;2022-10-16T03:00:12;100849.00;;;22.37;51.95
11395;BME280;5753;54.402;10.220;2022-10-16T03:02:38;100855.16;;;22.36;52.66
11395;BME280;5753;54.402;10.220;2022-10-16T03:05:05;100860.94;;;22.19;52.47
11395;BME280;5753;54.402;10.220;2022-10-16T03:07:31;100859.50;;;22.37;51.76
11395;BME280;5753;54.402;10.220;2022-10-16T03:09:57;100858.75;;;19.69;60.03
11395;BME280;5753;54.402;10.220;2022-10-16T03:12:26;100862.84;;;21.24;56.88
11395;BME280;5753;54.402;10.220;2022-10-16T03:14:52;100852.34;;;20.59;58.99
11395;BME280;5753;54.402;10.220;2022-10-16T03:17:19;100867.09;;;20.96;57.26
11395;BME280;5753;54.402;10.220;2022-10-16T03:19:45;100849.69;;;21.86;54.30
11395;BME280;5753;54.402;10.220;2022-10-16T03:22:11;100849.00;;;20.53;57.47
11395;BME280;5753;54.402;10.220;2022-10-16T03:24:37;100851.38;;;22.17;52.64
11395;BME280;5753;54.402;10.220;2022-10-16T03:27:03;100855.00;;;21.85;53.67
11395;BME280;5753;54.402;10.220;2022-10-16T03:29:29;100861.81;;;21.61;52.97
11395;BME280;5753;54.402;10.220;2022-10-16T03:31:56;100853.91;;;19.50;61.01
11395;BME280;5753;54.402;10.220;2022-10-16T03:34:22;100855.34;;;20.78;56.75
11395;BME280;5753;54.402;10.220;2022-10-16T03:36:49;100848.97;;;21.52;54.01
11395;BME280;5753;54.402;10.220;2022-10-16T03:39:15;100858.50;;;19.81;61.22
11395;BME280;5753;54.402;10.220;2022-10-16T03:41:41;100864.25;;;21.67;53.85
11395;BME280;5753;54.402;10.220;2022-10-16T03:44:07;100863.97;;;20.83;55.62
11395;BME280;5753;54.402;10.220;2022-10-16T03:46:33;100857.44;;;21.91;52.40
11395;BME280;5753;54.402;10.220;2022-10-16T03:48:59;100869.88;;;22.14;51.26
11395;BME280;5753;54.402;10.220;2022-10-16T03:51:26;100869.81;;;21.56;52.76
11395;BME280;5753;54.402;10.220;2022-10-16T03:53:52;100870.75;;;21.23;52.97
11395;BME280;5753;54.402;10.220;2022-10-16T03:56:18;100869.97;;;21.52;52.74
11395;BME280;5753;54.402;10.220;2022-10-16T03:58:45;100873.75;;;20.75;54.84
11395;BME280;5753;54.402;10.220;2022-10-16T04:01:11;100870.22;;;21.43;53.54
11395;BME280;5753;54.402;10.220;2022-10-16T04:03:37;100873.81;;;20.36;56.40
11395;BME280;5753;54.402;10.220;2022-10-16T04:06:03;100877.19;;;19.63;57.98
11395;BME280;5753;54.402;10.220;2022-10-16T04:08:29;100882.34;;;21.14;53.53
11395;BME280;5753;54.402;10.220;2022-10-16T04:10:55;100873.13;;;21.92;51.70
11395;BME280;5753;54.402;10.220;2022-10-16T04:13:22;100884.28;;;20.73;54.68
11395;BME280;5753;54.402;10.220;2022-10-16T04:15:48;100886.44;;;21.86;51.57
11395;BME280;5753;54.402;10.220;2022-10-16T04:18:14;100891.47;;;21.33;52.66
11395;BME280;5753;54.402;10.220;2022-10-16T04:20:41;100883.03;;;21.53;51.44
11395;BME280;5753;54.402;10.220;2022-10-16T04:23:07;100897.75;;;20.94;53.58
11395;BME280;5753;54.402;10.220;2022-10-16T04:25:33;100900.63;;;21.16;53.11
11395;BME280;5753;54.402;10.220;2022-10-16T04:27:59;100897.38;;;19.98;56.11
11395;BME280;5753;54.402;10.220;2022-10-16T04:30:25;100895.56;;;20.75;53.83
11395;BME280;5753;54.402;10.220;2022-10-16T04:32:52;100898.50;;;20.63;53.30
11395;BME280;5753;54.402;10.220;2022-10-16T04:35:19;100904.69;;;21.60;51.19
11395;BME280;5753;54.402;10.220;2022-10-16T04:37:46;100914.31;;;20.94;52.44
11395;BME280;5753;54.402;10.220;2022-10-16T04:40:13;100902.66;;;20.72;53.55
11395;BME280;5753;54.402;10.220;2022-10-16T04:42:39;100899.44;;;21.60;51.04
11395;BME280;5753;54.402;10.220;2022-10-16T04:45:07;100892.53;;;20.92;51.88
11395;BME280;5753;54.402;10.220;2022-10-16T04:47:34;100901.34;;;21.22;52.16
11395;BME280;5753;54.402;10.220;2022-10-16T04:50:00;100913.66;;;21.53;51.30
11395;BME280;5753;54.402;10.220;2022-10-16T04:52:28;100911.31;;;21.42;51.68
11395;BME280;5753;54.402;10.220;2022-10-16T04:54:54;100913.06;;;22.04;49.48
11395;BME280;5753;54.402;10.220;2022-10-16T04:57:22;100905.28;;;20.35;54.89
11395;BME280;5753;54.402;10.220;2022-10-16T04:59:48;100907.47;;;20.89;52.13
11395;BME280;5753;54.402;10.220;2022-10-16T05:02:14;100913.31;;;21.34;51.67
11395;BME280;5753;54.402;10.220;2022-10-16T05:04:40;100918.78;;;21.87;50.49
11395;BME280;5753;54.402;10.220;2022-10-16T05:07:06;100916.44;;;19.63;55.62
11395;BME280;5753;54.402;10.220;2022-10-16T05:09:32;100924.09;;;21.85;50.06
11395;BME280;5753;54.402;10.220;2022-10-16T05:11:58;100924.31;;;20.79;53.24
11395;BME280;5753;54.402;10.220;2022-10-16T05:14:24;100932.41;;;19.92;54.42
11395;BME280;5753;54.402;10.220;2022-10-16T05:16:50;100927.09;;;20.35;55.88
11395;BME280;5753;54.402;10.220;2022-10-16T05:19:17;100931.38;;;21.74;50.82
11395;BME280;5753;54.402;10.220;2022-10-16T05:21:43;100930.28;;;20.85;52.97
11395;BME280;5753;54.402;10.220;2022-10-16T05:24:10;100940.81;;;20.84;53.12
11395;BME280;5753;54.402;10.220;2022-10-16T05:26:36;100943.50;;;21.49;50.88
11395;BME280;5753;54.402;10.220;2022-10-16T05:29:02;100931.53;;;21.39;51.35
11395;BME280;5753;54.402;10.220;2022-10-16T05:31:29;100934.19;;;21.68;50.05
11395;BME280;5753;54.402;10.220;2022-10-16T05:34:01;100937.53;;;20.74;52.27
11395;BME280;5753;54.402;10.220;2022-10-16T05:36:28;100943.88;;;20.99;52.35
11395;BME280;5753;54.402;10.220;2022-10-16T05:38:54;100945.13;;;21.53;50.88
11395;BME280;5753;54.402;10.220;2022-10-16T05:41:20;100944.81;;;20.61;52.80
11395;BME280;5753;54.402;10.220;2022-10-16T05:43:50;100944.31;;;20.83;52.41
11395;BME280;5753;54.402;10.220;2022-10-16T05:46:17;100957.03;;;19.80;55.63
11395;BME280;5753;54.402;10.220;2022-10-16T05:48:43;100962.56;;;20.08;55.78
11395;BME280;5753;54.402;10.220;2022-10-16T05:51:12;100963.41;;;20.88;52.69
11395;BME280;5753;54.402;10.220;2022-10-16T05:53:39;100963.25;;;21.29;51.83
11395;BME280;5753;54.402;10.220;2022-10-16T05:56:08;100970.28;;;19.24;59.27
11395;BME280;5753;54.402;10.220;2022-10-16T05:58:36;100970.63;;;19.05;59.56
11395;BME280;5753;54.402;10.220;2022-10-16T06:01:05;100969.31;;;19.29;58.44
11395;BME280;5753;54.402;10.220;2022-10-16T06:03:33;100967.59;;;21.61;51.37
11395;BME280;5753;54.402;10.220;2022-10-16T06:06:06;100969.56;;;19.65;55.40
11395;BME280;5753;54.402;10.220;2022-10-16T06:08:33;100977.31;;;21.25;52.60
11395;BME280;5753;54.402;10.220;2022-10-16T06:11:04;100975.41;;;21.64;50.63
11395;BME280;5753;54.402;10.220;2022-10-16T06:13:30;100966.09;;;21.19;51.41
11395;BME280;5753;54.402;10.220;2022-10-16T06:15:58;100966.44;;;20.69;52.55
11395;BME280;5753;54.402;10.220;2022-10-16T06:18:26;100979.47;;;21.76;50.12
11395;BME280;5753;54.402;10.220;2022-10-16T06:20:52;100971.13;;;20.94;51.68
11395;BME280;5753;54.402;10.220;2022-10-16T06:23:18;100971.00;;;21.34;50.78
11395;BME280;5753;54.402;10.220;2022-10-16T06:25:44;100972.47;;;21.44;50.34
11395;BME280;5753;54.402;10.220;2022-10-16T06:28:11;100975.03;;;21.46;50.56
11395;BME280;5753;54.402;10.220;2022-10-16T06:30:37;100980.16;;;20.81;52.65
11395;BME280;5753;54.402;10.220;2022-10-16T06:33:03;100978.97;;;22.24;48.46
11395;BME280;5753;54.402;10.220;2022-10-16T06:35:29;100973.56;;;21.35;50.08
11395;BME280;5753;54.402;10.220;2022-10-16T06:37:57;100983.47;;;22.19;48.46
11395;BME280;5753;54.402;10.220;2022-10-16T06:40:24;100976.56;;;23.27;45.54
11395;BME280;5753;54.402;10.220;2022-10-16T06:42:50;100983.03;;;21.05;51.04
11395;BME280;5753;54.402;10.220;2022-10-16T06:45:17;100985.97;;;21.61;49.78
11395;BME280;5753;54.402;10.220;2022-10-16T06:47:43;100991.50;;;22.14;47.98
11395;BME280;5753;54.402;10.220;2022-10-16T06:50:10;100995.63;;;21.92;48.62
11395;BME280;5753;54.402;10.220;2022-10-16T06:52:36;100994.31;;;20.32;52.71
11395;BME280;5753;54.402;10.220;2022-10-16T06:55:02;100995.59;;;21.61;49.55
11395;BME280;5753;54.402;10.220;2022-10-16T06:57:29;101005.94;;;20.99;50.56
11395;BME280;5753;54.402;10.220;2022-10-16T06:59:55;101008.06;;;22.46;47.63
11395;BME280;5753;54.402;10.220;2022-10-16T07:02:21;101011.88;;;20.68;51.85
11395;BME280;5753;54.402;10.220;2022-10-16T07:04:47;101015.81;;;20.49;53.78
11395;BME280;5753;54.402;10.220;2022-10-16T07:07:14;101020.59;;;20.69;51.86
11395;BME280;5753;54.402;10.220;2022-10-16T07:09:40;101022.50;;;21.69;50.38
11395;BME280;5753;54.402;10.220;2022-10-16T07:12:07;101014.38;;;22.96;46.64
11395;BME280;5753;54.402;10.220;2022-10-16T07:14:33;101027.06;;;22.26;48.48
11395;BME280;5753;54.402;10.220;2022-10-16T07:16:59;101020.47;;;22.41;47.77
11395;BME280;5753;54.402;10.220;2022-10-16T07:19:25;101029.84;;;22.20;48.37
11395;BME280;5753;54.402;10.220;2022-10-16T07:21:51;101032.97;;;22.02;48.00
11395;BME280;5753;54.402;10.220;2022-10-16T07:24:17;101035.94;;;21.57;50.16
11395;BME280;5753;54.402;10.220;2022-10-16T07:26:45;101043.91;;;20.80;51.53
11395;BME280;5753;54.402;10.220;2022-10-16T07:29:14;101045.78;;;21.12;50.28
11395;BME280;5753;54.402;10.220;2022-10-16T07:31:40;101050.69;;;21.93;49.20
11395;BME280;5753;54.402;10.220;2022-10-16T07:34:07;101055.19;;;21.90;48.93
11395;BME280;5753;54.402;10.220;2022-10-16T07:36:33;101051.34;;;21.36;49.88
11395;BME280;5753;54.402;10.220;2022-10-16T07:38:59;101051.94;;;21.80;49.21
11395;BME280;5753;54.402;10.220;2022-10-16T07:41:26;101042.78;;;22.85;46.61
11395;BME280;5753;54.402;10.220;2022-10-16T07:43:53;101043.09;;;21.15;51.28
11395;BME280;5753;54.402;10.220;2022-10-16T07:46:21;101044.41;;;20.97;52.25
11395;BME280;5753;54.402;10.220;2022-10-16T07:48:48;101051.03;;;20.33;53.77
11395;BME280;5753;54.402;10.220;2022-10-16T07:51:20;101051.47;;;21.97;50.01
11395;BME280;5753;54.402;10.220;2022-10-16T07:53:47;101052.59;;;22.50;48.77
11395;BME280;5753;54.402;10.220;2022-10-16T07:56:13;101046.50;;;21.54;51.09
11395;BME280;5753;54.402;10.220;2022-10-16T07:58:40;101061.75;;;21.72;50.30
11395;BME280;5753;54.402;10.220;2022-10-16T08:01:08;101039.97;;;22.34;49.07
11395;BME280;5753;54.402;10.220;2022-10-16T08:03:35;101047.81;;;21.70;50.80
11395;BME280;5753;54.402;10.220;2022-10-16T08:06:01;101038.88;;;21.79;49.83
11395;BME280;5753;54.402;10.220;2022-10-16T08:08:28;101041.75;;;22.00;49.27
11395;BME280;5753;54.402;10.220;2022-10-16T08:10:55;101055.22;;;21.88;50.16
11395;BME280;5753;54.402;10.220;2022-10-16T08:13:21;101055.28;;;21.53;51.40
11395;BME280;5753;54.402;10.220;2022-10-16T08:15:48;101049.94;;;20.85;52.75
11395;BME280;5753;54.402;10.220;2022-10-16T08:18:15;101057.56;;;22.30;49.28
11395;BME280;5753;54.402;10.220;2022-10-16T08:20:42;101053.41;;;22.82;48.47
11395;BME280;5753;54.402;10.220;2022-10-16T08:23:13;101058.00;;;23.56;46.60
11395;BME280;5753;54.402;10.220;2022-10-16T08:25:40;101062.47;;;22.72;48.07
11395;BME280;5753;54.402;10.220;2022-10-16T08:28:08;101050.22;;;23.27;47.42
11395;BME280;5753;54.402;10.220;2022-10-16T08:30:34;101063.75;;;23.41;46.63
11395;BME280;5753;54.402;10.220;2022-10-16T08:33:01;101055.25;;;22.78;47.71
11395;BME280;5753;54.402;10.220;2022-10-16T08:35:27;101060.47;;;21.19;52.21
11395;BME280;5753;54.402;10.220;2022-10-16T08:37:53;101063.38;;;22.41;49.47
11395;BME280;5753;54.402;10.220;2022-10-16T08:40:25;101069.19;;;22.82;48.55
11395;BME280;5753;54.402;10.220;2022-10-16T08:50:31;101091.84;;;21.59;51.90
11395;BME280;5753;54.402;10.220;2022-10-16T08:52:59;101091.06;;;21.18;54.05
11395;BME280;5753;54.402;10.220;2022-10-16T08:55:43;101109.84;;;21.00;53.94
11395;BME280;5753;54.402;10.220;2022-10-16T08:58:15;101101.72;;;21.83;52.63
11395;BME280;5753;54.402;10.220;2022-10-16T09:00:48;101100.38;;;22.92;49.84
11395;BME280;5753;54.402;10.220;2022-10-16T09:03:35;101108.31;;;21.30;53.83
11395;BME280;5753;54.402;10.220;2022-10-16T09:06:15;101105.41;;;21.76;52.06
11395;BME280;5753;54.402;10.220;2022-10-16T09:14:06;101113.28;;;22.41;50.05
11395;BME280;5753;54.402;10.220;2022-10-16T09:16:41;101122.34;;;23.19;48.46
11395;BME280;5753;54.402;10.220;2022-10-16T09:19:18;101101.59;;;23.90;47.57
11395;BME280;5753;54.402;10.220;2022-10-16T09:21:46;101116.41;;;22.85;49.17
11395;BME280;5753;54.402;10.220;2022-10-16T09:24:21;101110.28;;;24.41;46.52
11395;BME280;5753;54.402;10.220;2022-10-16T09:26:50;101113.31;;;23.53;48.49
11395;BME280;5753;54.402;10.220;2022-10-16T09:29:18;101119.16;;;24.14;47.42
11395;BME280;5753;54.402;10.220;2022-10-16T09:31:47;101130.66;;;23.86;46.92
11395;BME280;5753;54.402;10.220;2022-10-16T09:36:52;101127.91;;;23.63;48.18
11395;BME280;5753;54.402;10.220;2022-10-16T09:39:18;101146.75;;;25.22;44.46
11395;BME280;5753;54.402;10.220;2022-10-16T09:41:45;101140.97;;;23.93;46.25
11395;BME280;5753;54.402;10.220;2022-10-16T09:44:25;101139.88;;;23.73;46.85
11395;BME280;5753;54.402;10.220;2022-10-16T09:47:12;101150.06;;;23.30;48.05
11395;BME280;5753;54.402;10.220;2022-10-16T09:50:36;101147.03;;;24.91;44.60
11395;BME280;5753;54.402;10.220;2022-10-16T09:52:37;101150.25;;;24.99;44.21
11395;BME280;5753;54.402;10.220;2022-10-16T09:55:15;101142.00;;;24.85;44.17
11395;BME280;5753;54.402;10.220;2022-10-16T09:57:51;101144.88;;;24.32;45.00
11395;BME280;5753;54.402;10.220;2022-10-16T10:00:19;101146.72;;;23.79;46.09
11395;BME280;5753;54.402;10.220;2022-10-16T10:02:46;101152.97;;;22.61;48.66
11395;BME280;5753;54.402;10.220;2022-10-16T10:05:29;101157.50;;;23.15;47.82
11395;BME280;5753;54.402;10.220;2022-10-16T10:08:00;101158.16;;;23.50;46.36
11395;BME280;5753;54.402;10.220;2022-10-16T10:10:30;101177.69;;;23.43;47.11
11395;BME280;5753;54.402;10.220;2022-10-16T10:12:57;101165.72;;;24.13;46.05
11395;BME280;5753;54.402;10.220;2022-10-16T10:15:25;101169.50;;;24.55;44.68
11395;BME280;5753;54.402;10.220;2022-10-16T10:17:57;101178.94;;;25.52;43.83
11395;BME280;5753;54.402;10.220;2022-10-16T10:22:56;101169.34;;;24.59;45.26
11395;BME280;5753;54.402;10.220;2022-10-16T10:34:02;101203.94;;;23.44;46.88
11395;BME280;5753;54.402;10.220;2022-10-16T10:36:42;101197.75;;;24.26;45.73
11395;BME280;5753;54.402;10.220;2022-10-16T10:39:22;101211.19;;;23.38;47.88
11395;BME280;5753;54.402;10.220;2022-10-16T10:50:02;101219.06;;;23.67;46.23
11395;BME280;5753;54.402;10.220;2022-10-16T11:01:12;101221.22;;;25.94;42.03
11395;BME280;5753;54.402;10.220;2022-10-16T11:03:54;101217.59;;;25.09;42.46
11395;BME280;5753;54.402;10.220;2022-10-16T11:06:37;101224.50;;;24.89;42.93
11395;BME280;5753;54.402;10.220;2022-10-16T11:09:23;101229.97;;;24.08;44.25
11395;BME280;5753;54.402;10.220;2022-10-16T11:14:51;101236.50;;;25.21;41.78
11395;BME280;5753;54.402;10.220;2022-10-16T11:17:35;101245.25;;;26.90;38.63
11395;BME280;5753;54.402;10.220;2022-10-16T11:20:22;101246.75;;;26.16;39.73
11395;BME280;5753;54.402;10.220;2022-10-16T11:23:51;101233.59;;;25.94;39.97
11395;BME280;5753;54.402;10.220;2022-10-16T11:26:01;101257.22;;;23.80;43.38
11395;BME280;5753;54.402;10.220;2022-10-16T11:28:37;101245.91;;;25.04;41.25
11395;BME280;5753;54.402;10.220;2022-10-16T11:36:58;101270.03;;;25.86;39.60
11395;BME280;5753;54.402;10.220;2022-10-16T11:39:30;101270.41;;;25.77;40.22
11395;BME280;5753;54.402;10.220;2022-10-16T11:42:04;101264.81;;;26.47;39.18
11395;BME280;5753;54.402;10.220;2022-10-16T11:44:57;101271.06;;;26.66;38.47
11395;BME280;5753;54.402;10.220;2022-10-16T11:47:33;101272.47;;;26.32;39.26
11395;BME280;5753;54.402;10.220;2022-10-16T11:55:49;101280.50;;;24.72;39.30
11395;BME280;5753;54.402;10.220;2022-10-16T12:06:40;101294.25;;;24.80;39.48
11395;BME280;5753;54.402;10.220;2022-10-16T12:09:22;101298.78;;;25.01;38.68
11395;BME280;5753;54.402;10.220;2022-10-16T12:11:50;101300.03;;;23.28;40.95
11395;BME280;5753;54.402;10.220;2022-10-16T12:16:58;101323.66;;;25.88;37.37
11395;BME280;5753;54.402;10.220;2022-10-16T12:19:27;101317.59;;;25.62;37.02
11395;BME280;5753;54.402;10.220;2022-10-16T12:21:57;101325.97;;;25.73;37.34
11395;BME280;5753;54.402;10.220;2022-10-16T12:24:35;101331.19;;;25.75;36.23
11395;BME280;5753;54.402;10.220;2022-10-16T12:27:03;101328.59;;;25.50;37.96
11395;BME280;5753;54.402;10.220;2022-10-16T12:29:39;101343.66;;;25.71;37.38
11395;BME280;5753;54.402;10.220;2022-10-16T12:32:34;101325.63;;;26.04;37.30
11395;BME280;5753;54.402;10.220;2022-10-16T12:35:02;101345.22;;;26.63;35.89
11395;BME280;5753;54.402;10.220;2022-10-16T12:37:34;101348.34;;;25.40;37.53
11395;BME280;5753;54.402;10.220;2022-10-16T12:40:14;101348.34;;;24.40;39.60
11395;BME280;5753;54.402;10.220;2022-10-16T12:42:41;101355.78;;;24.00;40.89
11395;BME280;5753;54.402;10.220;2022-10-16T12:47:53;101368.63;;;24.65;37.32
11395;BME280;5753;54.402;10.220;2022-10-16T12:52:53;101376.97;;;26.41;36.81
11395;BME280;5753;54.402;10.220;2022-10-16T12:55:21;101372.91;;;28.30;32.68
11395;BME280;5753;54.402;10.220;2022-10-16T12:58:13;101376.47;;;26.31;34.70
11395;BME280;5753;54.402;10.220;2022-10-16T13:01:03;101385.94;;;24.97;36.55
11395;BME280;5753;54.402;10.220;2022-10-16T13:17:41;101398.81;;;28.76;30.77
11395;BME280;5753;54.402;10.220;2022-10-16T13:28:34;101418.56;;;29.89;28.50
11395;BME280;5753;54.402;10.220;2022-10-16T13:31:02;101402.53;;;30.67;27.16
11395;BME280;5753;54.402;10.220;2022-10-16T13:33:41;101421.72;;;30.27;27.78
11395;BME280;5753;54.402;10.220;2022-10-16T13:36:20;101432.81;;;28.15;31.17
11395;BME280;5753;54.402;10.220;2022-10-16T13:38:47;101438.31;;;30.32;28.12
11395;BME280;5753;54.402;10.220;2022-10-16T13:41:18;101443.50;;;30.49;27.59
11395;BME280;5753;54.402;10.220;2022-10-16T13:43:47;101440.03;;;29.35;29.63
11395;BME280;5753;54.402;10.220;2022-10-16T13:46:19;101452.41;;;28.84;30.02
11395;BME280;5753;54.402;10.220;2022-10-16T13:48:57;101468.81;;;26.80;33.48
11395;BME280;5753;54.402;10.220;2022-10-16T13:51:24;101462.53;;;31.47;28.61
11395;BME280;5753;54.402;10.220;2022-10-16T13:53:50;101473.59;;;28.67;30.23
11395;BME280;5753;54.402;10.220;2022-10-16T13:56:19;101462.56;;;30.26;29.13
11395;BME280;5753;54.402;10.220;2022-10-16T13:58:46;101477.28;;;27.89;32.13
11395;BME280;5753;54.402;10.220;2022-10-16T14:01:18;101479.13;;;30.78;28.33
11395;BME280;5753;54.402;10.220;2022-10-16T14:03:46;101477.63;;;32.32;26.21
11395;BME280;5753;54.402;10.220;2022-10-16T14:06:20;101475.16;;;29.91;28.58
11395;BME280;5753;54.402;10.220;2022-10-16T14:09:03;101496.13;;;26.37;33.37
11395;BME280;5753;54.402;10.220;2022-10-16T14:11:31;101496.44;;;28.15;31.39
11395;BME280;5753;54.402;10.220;2022-10-16T14:13:58;101499.16;;;28.13;31.52
11395;BME280;5753;54.402;10.220;2022-10-16T14:16:28;101529.56;;;28.44;30.85
11395;BME280;5753;54.402;10.220;2022-10-16T14:19:03;101490.03;;;26.78;33.68
11395;BME280;5753;54.402;10.220;2022-10-16T14:21:33;101489.41;;;28.33;31.04
11395;BME280;5753;54.402;10.220;2022-10-16T14:24:10;101509.31;;;28.60;30.37
11395;BME280;5753;54.402;10.220;2022-10-16T14:26:42;101505.41;;;26.90;32.61
11395;BME280;5753;54.402;10.220;2022-10-16T14:29:13;101508.00;;;27.54;32.60
11395;BME280;5753;54.402;10.220;2022-10-16T14:31:40;101511.91;;;29.15;30.05
11395;BME280;5753;54.402;10.220;2022-10-16T14:34:24;101507.75;;;28.00;31.29
11395;BME280;5753;54.402;10.220;2022-10-16T14:36:50;101517.78;;;28.49;31.12
11395;BME280;5753;54.402;10.220;2022-10-16T14:39:21;101512.84;;;28.97;29.99
11395;BME280;5753;54.402;10.220;2022-10-16T14:41:50;101524.09;;;30.51;28.61
11395;BME280;5753;54.402;10.220;2022-10-16T14:44:18;101533.56;;;31.18;27.23
11395;BME280;5753;54.402;10.220;2022-10-16T14:46:47;101534.88;;;29.16;29.65
11395;BME280;5753;54.402;10.220;2022-10-16T14:49:15;101551.47;;;27.08;32.62
11395;BME280;5753;54.402;10.220;2022-10-16T14:51:43;101554.59;;;27.38;32.75
11395;BME280;5753;54.402;10.220;2022-10-16T14:54:12;101556.69;;;27.10;33.43
11395;BME280;5753;54.402;10.220;2022-10-16T14:56:54;101559.53;;;27.05;33.40
11395;BME280;5753;54.402;10.220;2022-10-16T14:59:41;101551.38;;;26.88;34.13
11395;BME280;5753;54.402;10.220;2022-10-16T15:02:30;101555.38;;;27.62;32.81